Time;durP1;ratioP1;P1;durP2;ratioP2;P2;SDS_P1;SDS_P2;PMS_P1;PMS_P2;Temp;Humidity;BMP_temperature;BMP_pressure;BME280_temperature;BME280_humidity;BME280_pressure;Samples;Min_cycle;Max_cycle;Signal;HPM_P1;HPM_P2
2022/07/03 00:00:28;;;;;;;1646.13;999.90;;;;;;;25.59;55.15;95387.28;5000556;28;20026;-54
2022/07/03 00:02:54;;;;;;;1628.50;999.90;;;;;;;25.61;55.37;95379.31;5017320;28;21555;-49
2022/07/03 00:05:19;;;;;;;1642.05;999.90;;;;;;;25.66;55.54;95382.00;5017955;28;20025;-52
2022/07/03 00:07:45;;;;;;;1619.97;999.90;;;;;;;25.63;55.73;95387.75;5016152;28;20788;-54
2022/07/03 00:10:10;;;;;;;1631.05;999.90;;;;;;;25.55;55.97;95392.31;5022419;28;20021;-52
2022/07/03 00:12:36;;;;;;;1610.10;999.90;;;;;;;25.55;56.25;95398.53;5020102;28;20144;-49
2022/07/03 00:15:02;;;;;;;1610.78;999.90;;;;;;;25.53;56.25;95394.81;5020219;28;20254;-50
2022/07/03 00:17:27;;;;;;;1613.03;999.90;;;;;;;25.51;56.15;95391.84;5017428;28;20021;-52
2022/07/03 00:19:53;;;;;;;1604.32;999.90;;;;;;;25.51;56.52;95380.91;5019455;28;20030;-51
2022/07/03 00:22:19;;;;;;;1592.97;999.90;;;;;;;25.48;56.47;95387.41;5019799;28;20056;-50
2022/07/03 00:24:50;;;;;;;1592.22;999.90;;;;;;;25.44;56.73;95392.41;5016249;28;20041;-50
2022/07/03 00:27:15;;;;;;;1602.95;999.90;;;;;;;25.44;56.99;95387.72;5018446;28;20021;-53
2022/07/03 00:29:42;;;;;;;1611.72;999.90;;;;;;;25.48;56.90;95390.16;5000565;28;20175;-51
2022/07/03 00:32:11;;;;;;;1617.10;999.90;;;;;;;25.41;56.99;95393.44;5001942;28;20057;-52
2022/07/03 00:34:37;;;;;;;1551.03;999.90;;;;;;;25.39;57.14;95385.03;5019168;28;20060;-53
2022/07/03 00:37:03;;;;;;;1595.53;999.90;;;;;;;25.38;57.32;95391.75;5014791;28;20341;-54
2022/07/03 00:39:28;;;;;;;1613.20;999.90;;;;;;;25.40;57.35;95381.03;4982077;28;20485;-50
2022/07/03 00:42:01;;;;;;;1605.35;999.90;;;;;;;25.34;57.46;95372.16;4983252;28;20029;-51
2022/07/03 00:44:28;;;;;;;1599.78;999.90;;;;;;;25.34;57.34;95367.41;5019507;28;20032;-50
2022/07/03 00:46:53;;;;;;;1572.47;999.90;;;;;;;25.33;57.39;95370.66;5005520;28;20516;-53
2022/07/03 00:49:19;;;;;;;1594.38;999.90;;;;;;;25.27;57.61;95361.78;4990893;28;20061;-51
2022/07/03 00:51:44;;;;;;;1598.15;999.90;;;;;;;25.28;57.91;95374.22;5012808;28;20287;-50
2022/07/03 00:54:10;;;;;;;1584.03;999.90;;;;;;;25.28;57.83;95368.75;4993246;28;20033;-54
2022/07/03 00:56:37;;;;;;;1535.00;999.90;;;;;;;25.27;57.62;95372.00;5000081;28;20416;-53
2022/07/03 00:59:02;;;;;;;1556.90;999.90;;;;;;;25.23;57.63;95372.28;4991927;28;20041;-50
2022/07/03 01:01:32;;;;;;;1507.47;999.90;;;;;;;25.22;57.75;95359.88;5010350;28;20022;-51
2022/07/03 01:04:12;;;;;;;1552.65;999.90;;;;;;;25.21;57.94;95358.38;5016570;28;20048;-49
2022/07/03 01:06:53;;;;;;;1575.65;999.90;;;;;;;25.15;57.73;95356.97;5019896;28;20045;-50
2022/07/03 01:09:23;;;;;;;1582.32;999.90;;;;;;;25.22;57.87;95354.41;5004618;28;20026;-52
2022/07/03 01:12:02;;;;;;;1584.47;999.90;;;;;;;25.15;58.21;95349.50;5001488;28;20131;-50
2022/07/03 01:14:32;;;;;;;;;;;;;;;25.07;58.33;95343.13;5017301;28;20069;-52
2022/07/03 01:16:58;;;;;;;1545.90;999.90;;;;;;;25.10;58.46;95353.03;5017134;28;20004;-51
2022/07/03 01:19:26;;;;;;;1545.85;999.90;;;;;;;25.09;58.64;95354.28;5019025;28;20124;-50
2022/07/03 01:22:26;;;;;;;1548.10;999.90;;;;;;;25.09;58.52;95350.81;5018676;28;20029;-52
2022/07/03 01:25:11;;;;;;;1542.80;999.90;;;;;;;25.06;58.70;95346.38;5011573;28;20143;-51
2022/07/03 01:27:58;;;;;;;1551.82;999.90;;;;;;;25.09;58.31;95342.59;5014397;28;20156;-52
2022/07/03 01:30:25;;;;;;;1552.43;999.90;;;;;;;25.02;58.66;95352.13;5019183;28;20021;-51
2022/07/03 01:32:58;;;;;;;1559.30;999.90;;;;;;;25.00;58.40;95343.69;5015875;28;20029;-53
2022/07/03 01:35:33;;;;;;;1565.93;999.90;;;;;;;24.98;58.79;95346.16;5008442;28;20115;-50
2022/07/03 01:38:01;;;;;;;1571.78;999.90;;;;;;;24.95;58.83;95336.25;5007823;28;20032;-52
2022/07/03 01:40:26;;;;;;;1568.55;999.90;;;;;;;24.97;58.61;95344.66;5016358;28;20447;-51
2022/07/03 01:42:52;;;;;;;1559.60;999.90;;;;;;;24.96;58.49;95345.19;5014249;28;20026;-52
2022/07/03 01:45:17;;;;;;;1546.63;999.90;;;;;;;24.94;58.79;95344.97;5009254;28;20042;-52
2022/07/03 01:47:45;;;;;;;1540.47;999.90;;;;;;;24.94;58.56;95340.22;4995131;28;21320;-51
2022/07/03 01:50:12;;;;;;;1524.35;999.90;;;;;;;24.92;58.73;95348.19;4980751;28;20022;-53
2022/07/03 01:52:39;;;;;;;1533.00;999.90;;;;;;;24.93;58.67;95355.16;4971935;28;20100;-52
2022/07/03 01:55:05;;;;;;;1522.90;999.90;;;;;;;24.95;58.73;95354.66;4979342;28;20093;-52
2022/07/03 01:57:40;;;;;;;1533.32;999.90;;;;;;;24.89;58.58;95359.41;4977461;28;20072;-53
2022/07/03 02:00:07;;;;;;;1545.45;999.90;;;;;;;24.85;58.83;95354.22;4995208;28;20021;-53
2022/07/03 02:02:33;;;;;;;1532.88;999.90;;;;;;;24.86;58.72;95355.72;4995021;28;20026;-51
2022/07/03 02:05:09;;;;;;;1534.63;999.90;;;;;;;24.86;58.71;95352.97;4998912;28;20033;-50
2022/07/03 02:07:47;;;;;;;1525.95;999.90;;;;;;;24.87;58.77;95357.19;4994873;28;20115;-52
2022/07/03 02:10:15;;;;;;;1519.03;999.90;;;;;;;24.82;58.74;95355.25;4979151;28;20030;-51
2022/07/03 02:12:52;;;;;;;1532.25;999.90;;;;;;;24.76;58.96;95355.81;4996377;28;20108;-51
2022/07/03 02:15:30;;;;;;;1524.57;999.90;;;;;;;24.75;59.12;95354.31;4992894;28;20036;-50
2022/07/03 02:17:56;;;;;;;1538.30;999.90;;;;;;;24.74;59.08;95350.09;4970510;28;20042;-50
2022/07/03 02:20:22;;;;;;;1542.18;999.90;;;;;;;24.74;59.04;95348.13;4994036;28;20052;-51
2022/07/03 02:22:59;;;;;;;1532.55;999.90;;;;;;;24.72;59.23;95352.63;4995235;28;20038;-51
2022/07/03 02:25:37;;;;;;;1532.47;999.90;;;;;;;24.74;59.00;95355.56;4995372;28;20034;-51
2022/07/03 02:28:40;;;;;;;1519.50;999.90;;;;;;;24.72;59.34;95344.41;4995714;28;20143;-53
2022/07/03 02:31:06;;;;;;;1507.35;999.90;;;;;;;24.66;59.13;95351.91;4990774;28;20029;-52
2022/07/03 02:33:31;;;;;;;1506.93;999.90;;;;;;;24.65;59.29;95355.88;4962864;28;20025;-53
2022/07/03 02:35:57;;;;;;;1512.93;999.90;;;;;;;24.66;59.03;95357.38;4970377;28;20027;-53
2022/07/03 02:38:22;;;;;;;1514.35;999.90;;;;;;;24.65;59.14;95361.34;4976789;28;20141;-52
2022/07/03 02:41:16;;;;;;;1503.30;999.90;;;;;;;24.63;59.00;95355.66;4961587;28;20042;-51
2022/07/03 02:43:46;;;;;;;1512.00;999.90;;;;;;;24.61;59.16;95366.38;4950182;28;20060;-53
2022/07/03 02:49:44;;;;;;;1516.88;999.90;;;;;;;24.58;59.45;95351.72;4989415;28;20053;-53
2022/07/03 02:52:43;;;;;;;1519.35;999.90;;;;;;;24.62;59.19;95362.38;4992861;28;20104;-53
2022/07/03 02:55:17;;;;;;;1519.03;999.90;;;;;;;24.56;59.55;95358.97;4974864;28;20042;-52
2022/07/03 02:57:43;;;;;;;1513.28;999.90;;;;;;;24.55;59.55;95365.66;4998032;28;20025;-53
2022/07/03 03:00:10;;;;;;;1513.60;999.90;;;;;;;24.55;59.91;95371.13;4996363;28;20464;-52
2022/07/03 03:02:56;;;;;;;1515.90;999.90;;;;;;;24.57;59.34;95371.34;4972778;28;20034;-51
2022/07/03 03:05:48;;;;;;;1520.97;999.90;;;;;;;24.51;59.42;95381.56;4974457;28;20549;-50
2022/07/03 03:08:20;;;;;;;1525.57;999.90;;;;;;;24.51;59.13;95384.31;4986999;28;20034;-51
2022/07/03 03:10:46;;;;;;;1515.00;999.90;;;;;;;24.54;59.57;95377.84;4969970;28;20018;-51
2022/07/03 03:13:13;;;;;;;1521.15;999.90;;;;;;;24.52;59.42;95380.34;4993874;28;20025;-51
2022/07/03 03:15:47;;;;;;;1517.82;999.90;;;;;;;24.54;59.23;95377.84;4999918;28;20029;-51
2022/07/03 03:18:13;;;;;;;1512.30;999.90;;;;;;;24.51;59.34;95384.31;4978725;28;20040;-52
2022/07/03 03:20:40;;;;;;;1512.88;999.90;;;;;;;24.51;59.42;95384.31;4965286;28;20593;-50
2022/07/03 03:23:45;;;;;;;1515.60;999.90;;;;;;;24.46;59.63;95387.81;4996838;28;20208;-54
2022/07/03 03:26:16;;;;;;;1521.82;999.90;;;;;;;24.46;59.58;95387.81;4966786;28;20148;-51
2022/07/03 03:28:42;;;;;;;1516.00;999.90;;;;;;;24.49;59.42;95386.81;4952589;28;20034;-49
2022/07/03 03:31:08;;;;;;;1524.07;999.90;;;;;;;24.47;59.55;95389.31;4982944;28;20045;-53
2022/07/03 03:33:44;;;;;;;1524.70;999.90;;;;;;;24.49;59.85;95389.53;4998922;28;20088;-51
2022/07/03 03:36:10;;;;;;;1522.40;999.90;;;;;;;24.46;59.69;95382.38;4999956;28;20389;-50
2022/07/03 03:38:36;;;;;;;1521.38;999.90;;;;;;;24.47;59.65;95383.84;4999051;28;20681;-52
2022/07/03 03:41:03;;;;;;;1515.72;999.90;;;;;;;24.45;59.67;95386.34;5000672;28;20026;-50
2022/07/03 03:43:29;;;;;;;1518.32;999.90;;;;;;;24.43;59.67;95377.91;4974112;28;20264;-53
2022/07/03 03:45:54;;;;;;;1522.88;999.90;;;;;;;24.42;59.81;95379.16;5001890;28;20528;-50
2022/07/03 03:48:20;;;;;;;1520.10;999.90;;;;;;;24.41;59.87;95380.44;4998771;28;20088;-52
2022/07/03 03:50:45;;;;;;;1526.35;999.90;;;;;;;24.45;60.07;95386.34;5001699;28;20030;-50
2022/07/03 03:53:11;;;;;;;1524.82;999.90;;;;;;;24.40;60.13;95384.41;5001223;28;20627;-53
2022/07/03 03:55:37;;;;;;;1531.72;999.90;;;;;;;24.47;60.13;95394.78;4969889;28;20025;-50
2022/07/03 03:58:04;;;;;;;1520.93;999.90;;;;;;;24.49;60.00;95395.00;5000323;28;20034;-52
2022/07/03 04:00:30;;;;;;;1527.15;999.90;;;;;;;24.47;59.70;95389.31;4976313;28;20026;-52
2022/07/03 04:02:55;;;;;;;1519.53;999.90;;;;;;;24.46;59.80;95398.75;5000329;28;20034;-53
2022/07/03 04:05:21;;;;;;;1523.00;999.90;;;;;;;24.47;59.96;95392.06;5000372;28;20037;-52
2022/07/03 04:07:46;;;;;;;1520.38;999.90;;;;;;;24.49;60.19;95392.28;4998796;28;20034;-50
2022/07/03 04:10:12;;;;;;;1507.60;999.90;;;;;;;24.50;60.09;95399.22;5000774;28;20033;-52
2022/07/03 04:12:37;;;;;;;1519.38;999.90;;;;;;;24.52;59.60;95391.25;4998948;28;20030;-49
2022/07/03 04:15:03;;;;;;;1518.53;999.90;;;;;;;24.49;60.15;95392.28;4971686;28;20034;-50
2022/07/03 04:17:29;;;;;;;1528.78;999.90;;;;;;;24.53;59.98;95388.03;4997037;28;20037;-51
2022/07/03 04:19:54;;;;;;;1524.15;999.90;;;;;;;24.46;60.18;95385.81;4988474;28;20038;-51
2022/07/03 04:22:20;;;;;;;1519.75;999.90;;;;;;;24.51;60.46;95396.00;4964413;28;20034;-52
2022/07/03 04:24:45;;;;;;;1516.30;999.90;;;;;;;24.51;60.15;95381.56;4991267;28;20064;-52
2022/07/03 04:27:11;;;;;;;1514.22;999.90;;;;;;;24.52;60.26;95381.06;4986660;28;21400;-52
2022/07/03 04:29:36;;;;;;;1509.28;999.90;;;;;;;24.56;60.36;95376.09;4989201;28;20038;-51
2022/07/03 04:32:02;;;;;;;1513.90;999.90;;;;;;;24.54;60.05;95378.59;4989516;28;20524;-52
2022/07/03 04:34:27;;;;;;;1519.38;999.90;;;;;;;24.61;59.85;95377.28;4988908;28;20042;-53
2022/07/03 04:36:53;;;;;;;1514.60;999.90;;;;;;;24.63;60.10;95380.25;4989029;28;20034;-52
2022/07/03 04:39:18;;;;;;;1518.20;999.90;;;;;;;24.64;59.94;95382.47;4989643;28;20535;-52
2022/07/03 04:41:44;;;;;;;1520.53;999.90;;;;;;;24.76;59.31;95377.66;4987476;28;20058;-52
2022/07/03 04:44:09;;;;;;;1512.32;999.90;;;;;;;24.74;59.68;95380.91;5000206;28;20030;-52
2022/07/03 04:46:35;;;;;;;1519.13;999.90;;;;;;;24.84;59.63;95388.28;4998920;28;20054;-52
2022/07/03 04:49:00;;;;;;;1518.05;999.90;;;;;;;24.90;59.74;95386.22;4998672;28;20034;-52
2022/07/03 04:51:26;;;;;;;1528.07;999.90;;;;;;;24.97;59.34;95382.94;4997938;28;20129;-53
2022/07/03 04:53:51;;;;;;;1524.32;999.90;;;;;;;25.08;58.84;95388.34;4988864;28;20061;-53
2022/07/03 04:56:17;;;;;;;1511.65;999.90;;;;;;;25.19;59.02;95388.22;4998249;28;20018;-53
2022/07/03 04:58:42;;;;;;;1512.32;999.90;;;;;;;25.22;58.49;95387.19;4976133;28;20030;-52
2022/07/03 05:01:08;;;;;;;1510.68;999.90;;;;;;;25.35;57.91;95385.31;4991735;28;20085;-53
2022/07/03 05:03:33;;;;;;;1512.85;999.90;;;;;;;25.50;57.84;95379.44;4990159;28;20026;-53
2022/07/03 05:05:59;;;;;;;1514.60;999.90;;;;;;;25.65;57.62;95379.78;4985836;28;20437;-52
2022/07/03 05:08:24;;;;;;;1512.13;999.90;;;;;;;25.80;56.84;95381.59;4973878;28;20026;-51
2022/07/03 05:10:50;;;;;;;1524.22;999.90;;;;;;;25.80;56.26;95381.59;4998955;28;20022;-52
2022/07/03 05:13:15;;;;;;;1508.30;999.90;;;;;;;25.89;56.21;95375.75;4992594;28;21258;-53
2022/07/03 05:15:40;;;;;;;1528.18;999.90;;;;;;;25.98;55.68;95380.84;4967769;28;20037;-52
2022/07/03 05:18:06;;;;;;;1511.63;999.90;;;;;;;25.99;55.59;95376.88;4983156;28;20084;-53
2022/07/03 05:20:31;;;;;;;1518.10;999.90;;;;;;;26.02;55.25;95375.84;4987215;28;20026;-53
2022/07/03 05:22:58;;;;;;;1517.60;999.90;;;;;;;26.01;55.37;95379.09;4990235;28;20033;-53
2022/07/03 05:25:23;;;;;;;1516.45;999.90;;;;;;;25.93;55.25;95372.72;4985901;28;20022;-52
2022/07/03 05:27:55;;;;;;;1512.18;999.90;;;;;;;26.05;54.88;95374.81;4965881;28;20037;-52
2022/07/03 05:30:24;;;;;;;1519.97;999.90;;;;;;;26.18;54.49;95372.13;4967858;28;20516;-52
2022/07/03 05:32:50;;;;;;;1521.60;999.90;;;;;;;26.22;54.65;95377.28;4980678;28;20049;-53
2022/07/03 05:35:15;;;;;;;1532.05;999.90;;;;;;;26.26;54.55;95367.53;4982844;28;20065;-52
2022/07/03 05:37:41;;;;;;;1524.38;999.90;;;;;;;26.28;54.36;95376.72;4975035;28;20089;-54
2022/07/03 05:40:07;;;;;;;1540.38;999.90;;;;;;;26.38;54.37;95385.28;4988480;28;20018;-54
2022/07/03 05:42:33;;;;;;;1533.13;999.90;;;;;;;26.40;54.30;95382.81;4965697;28;20547;-51
2022/07/03 05:44:58;;;;;;;1527.22;999.90;;;;;;;26.57;53.98;95391.50;4999769;28;20042;-53
2022/07/03 05:47:24;;;;;;;1532.22;999.90;;;;;;;26.57;53.76;95391.50;5008667;28;20041;-54
2022/07/03 05:49:49;;;;;;;1534.15;999.90;;;;;;;26.52;53.60;95390.31;5006622;28;20038;-54
2022/07/03 05:52:16;;;;;;;1532.68;999.90;;;;;;;26.63;53.37;95392.16;5014936;28;20052;-53
2022/07/03 05:54:41;;;;;;;1540.43;999.90;;;;;;;26.59;53.58;95395.22;5008011;28;20301;-54
2022/07/03 05:57:07;;;;;;;1544.68;999.90;;;;;;;26.61;53.91;95391.94;5004121;28;20473;-52
2022/07/03 05:59:32;;;;;;;1538.90;999.90;;;;;;;26.61;53.72;95392.69;5004792;28;20026;-52
2022/07/03 06:01:58;;;;;;;1530.18;999.90;;;;;;;26.74;54.02;95389.22;5007721;28;20427;-52
2022/07/03 06:04:23;;;;;;;1526.53;999.90;;;;;;;26.69;53.90;95393.53;5003294;28;20407;-54
2022/07/03 06:06:49;;;;;;;1532.65;999.90;;;;;;;26.75;53.92;95393.47;5002647;28;20077;-52
2022/07/03 06:09:14;;;;;;;1536.28;999.90;;;;;;;26.86;53.92;95383.81;5016257;28;20021;-53
2022/07/03 06:11:39;;;;;;;1532.20;999.90;;;;;;;-140.79;100.00;63287.88;4998270;28;20044;-53
2022/07/03 06:14:05;;;;;;;1536.93;999.90;;;;;;;-140.79;100.00;63287.88;5011250;28;20527;-52
2022/07/03 06:16:30;;;;;;;1534.68;999.90;;;;;;;-140.79;100.00;63287.88;5012566;28;20473;-52
2022/07/03 06:18:56;;;;;;;1539.28;999.90;;;;;;;-140.79;100.00;63287.88;5013495;28;20037;-53
2022/07/03 06:21:21;;;;;;;1545.15;999.90;;;;;;;-140.79;100.00;63287.88;5014490;28;20029;-54
2022/07/03 06:23:47;;;;;;;1554.25;999.90;;;;;;;-140.79;100.00;63287.88;5015467;28;20731;-60
2022/07/03 06:26:14;;;;;;;1552.28;999.90;;;;;;;-140.79;100.00;63287.88;5013547;28;20025;-54
2022/07/03 06:28:40;;;;;;;1552.88;999.90;;;;;;;-140.79;100.00;63287.88;5014014;28;20056;-54
2022/07/03 06:31:06;;;;;;;1548.50;999.90;;;;;;;-140.79;100.00;63287.88;5016043;28;20029;-58
2022/07/03 06:33:31;;;;;;;1549.72;999.90;;;;;;;-140.79;100.00;63287.88;4997557;28;20025;-54
2022/07/03 06:35:57;;;;;;;1547.88;999.90;;;;;;;-140.79;100.00;63287.88;5000042;28;20026;-53
2022/07/03 06:38:22;;;;;;;1555.82;999.90;;;;;;;-140.79;100.00;63287.88;5017170;28;20405;-56
2022/07/03 06:40:48;;;;;;;10.52;7.07;;;;;;;-140.79;100.00;63287.88;4999480;28;20033;-52
2022/07/03 06:43:13;;;;;;;7.88;6.30;;;;;;;-140.79;100.00;63287.88;5013960;28;20473;-51
2022/07/03 06:45:39;;;;;;;8.05;6.63;;;;;;;-140.79;100.00;63287.88;5014856;28;20660;-54
2022/07/03 06:48:04;;;;;;;8.38;6.35;;;;;;;-140.79;100.00;63287.88;5015281;28;20597;-53
2022/07/03 06:50:30;;;;;;;8.45;6.65;;;;;;;-140.79;100.00;63287.88;5016884;28;20010;-50
2022/07/03 06:52:55;;;;;;;9.85;6.75;;;;;;;-140.79;100.00;63287.88;5013055;28;20041;-54
2022/07/03 06:55:21;;;;;;;9.55;6.88;;;;;;;-140.79;100.00;63287.88;5014937;28;20010;-54
2022/07/03 06:57:46;;;;;;;10.02;6.82;;;;;;;-140.79;100.00;63287.88;5016484;28;20033;-57
2022/07/03 07:00:12;;;;;;;18.58;8.23;;;;;;;-140.79;100.00;63287.88;5015066;28;20025;-54
2022/07/03 07:02:37;;;;;;;255.63;179.13;;;;;;;-140.79;100.00;63287.88;5012668;28;20107;-53
2022/07/03 07:05:04;;;;;;;53.97;47.10;;;;;;;-140.79;100.00;63287.88;5015547;28;20045;-53
2022/07/03 07:07:29;;;;;;;112.28;75.22;;;;;;;-140.79;100.00;63287.88;5015579;28;20417;-52
2022/07/03 07:09:54;;;;;;;56.13;47.92;;;;;;;-140.79;100.00;63287.88;5017963;28;20030;-51
2022/07/03 07:12:20;;;;;;;61.08;52.97;;;;;;;-140.79;100.00;63287.88;5014570;28;20279;-57
2022/07/03 07:14:45;;;;;;;54.15;45.80;;;;;;;-140.79;100.00;63287.88;5017335;28;20064;-51
2022/07/03 07:17:11;;;;;;;56.47;47.45;;;;;;;-140.79;100.00;63287.88;5016939;28;20484;-51
2022/07/03 07:19:36;;;;;;;73.40;60.53;;;;;;;-140.79;100.00;63287.88;5017945;28;20030;-53
2022/07/03 07:22:02;;;;;;;72.40;59.33;;;;;;;-140.79;100.00;63287.88;5012121;28;20770;-52
2022/07/03 07:24:28;;;;;;;71.93;59.08;;;;;;;-140.79;100.00;63287.88;5010838;28;20022;-55
2022/07/03 07:26:54;;;;;;;56.35;49.50;;;;;;;-140.79;100.00;63287.88;5005088;28;20026;-53
2022/07/03 07:29:19;;;;;;;57.40;50.63;;;;;;;-140.79;100.00;63287.88;5004648;28;20109;-53
2022/07/03 07:31:45;;;;;;;54.10;48.38;;;;;;;-140.79;100.00;63287.88;5012766;28;20105;-53
2022/07/03 07:34:10;;;;;;;50.35;44.97;;;;;;;-140.79;100.00;63287.88;4999851;28;20053;-52
2022/07/03 07:36:36;;;;;;;64.05;55.83;;;;;;;-140.79;100.00;63287.88;5008473;28;20495;-52
2022/07/03 07:39:01;;;;;;;241.05;134.02;;;;;;;-140.79;100.00;63287.88;5014211;28;20445;-53
2022/07/03 07:41:27;;;;;;;301.35;167.32;;;;;;;-140.79;100.00;63287.88;5013366;28;20041;-52
2022/07/03 07:43:52;;;;;;;122.32;86.60;;;;;;;-140.79;100.00;63287.88;5016178;28;20037;-51
2022/07/03 07:46:18;;;;;;;105.18;68.82;;;;;;;-140.79;100.00;63287.88;5001121;28;20548;-53
2022/07/03 07:48:44;;;;;;;81.95;61.33;;;;;;;-140.79;100.00;63287.88;4995563;28;20030;-51
2022/07/03 07:51:10;;;;;;;88.63;63.60;;;;;;;-140.79;100.00;63287.88;4996100;28;20021;-51
2022/07/03 07:53:36;;;;;;;96.78;67.65;;;;;;;-140.79;100.00;63287.88;4993752;28;20053;-51
2022/07/03 07:56:01;;;;;;;55.60;48.28;;;;;;;-140.79;100.00;63287.88;4995507;28;20030;-52
2022/07/03 07:58:26;;;;;;;88.18;63.83;;;;;;;-140.79;100.00;63287.88;4993761;28;20029;-52
2022/07/03 08:06:20;;;;;;;92.60;69.15;;;;;;;-140.79;100.00;63287.88;4996349;28;20088;-51
2022/07/03 08:08:46;;;;;;;181.82;109.25;;;;;;;-140.79;100.00;63287.88;4997425;28;20037;-52
2022/07/03 08:11:11;;;;;;;109.72;82.03;;;;;;;-140.79;100.00;63287.88;4995767;28;20061;-51
2022/07/03 08:13:37;;;;;;;110.68;86.90;;;;;;;-140.79;100.00;63287.88;5001663;28;20030;-53
2022/07/03 08:16:02;;;;;;;99.65;75.75;;;;;;;-140.79;100.00;63287.88;4999792;28;20037;-51
2022/07/03 08:18:28;;;;;;;387.40;260.92;;;;;;;-140.79;100.00;63287.88;4999581;28;20026;-52
2022/07/03 08:20:53;;;;;;;811.28;601.40;;;;;;;-140.79;100.00;63287.88;4979137;28;20026;-51
2022/07/03 08:23:18;;;;;;;858.95;668.75;;;;;;;-140.79;100.00;63287.88;4996169;28;20029;-53
2022/07/03 08:25:44;;;;;;;866.58;675.35;;;;;;;-140.79;100.00;63287.88;4998881;28;20083;-50
2022/07/03 08:28:09;;;;;;;841.00;643.30;;;;;;;-140.79;100.00;63287.88;4999285;28;20936;-51
2022/07/03 08:30:35;;;;;;;827.45;625.83;;;;;;;-140.79;100.00;63287.88;4969381;28;20077;-51
2022/07/03 08:33:00;;;;;;;834.15;633.00;;;;;;;-140.79;100.00;63287.88;4984796;28;20052;-51
2022/07/03 08:35:26;;;;;;;804.55;592.78;;;;;;;-140.79;100.00;63287.88;4989564;28;20034;-51
2022/07/03 08:37:52;;;;;;;801.97;588.70;;;;;;;-140.79;100.00;63287.88;4998217;28;20542;-51
2022/07/03 08:40:18;;;;;;;794.53;582.53;;;;;;;-140.79;100.00;63287.88;4976212;28;20033;-51
2022/07/03 08:42:54;;;;;;;783.53;569.92;;;;;;;-140.79;100.00;63287.88;4992038;28;20053;-53
2022/07/03 08:45:20;;;;;;;792.10;574.55;;;;;;;-140.79;100.00;63287.88;5001584;28;20072;-52
2022/07/03 08:47:47;;;;;;;829.47;626.00;;;;;;;-140.79;100.00;63287.88;5019856;28;20065;-54
2022/07/03 08:50:13;;;;;;;819.45;615.13;;;;;;;-140.79;100.00;63287.88;5020141;28;20021;-53
2022/07/03 08:52:39;;;;;;;797.20;581.00;;;;;;;-140.79;100.00;63287.88;5018808;28;20040;-52
2022/07/03 08:55:05;;;;;;;787.00;568.15;;;;;;;-140.79;100.00;63287.88;5007706;28;20069;-52
2022/07/03 08:57:32;;;;;;;780.10;561.17;;;;;;;-140.79;100.00;63287.88;5007235;28;20022;-52
2022/07/03 08:59:58;;;;;;;789.75;570.10;;;;;;;-140.79;100.00;63287.88;4995617;28;20120;-53
2022/07/03 09:02:23;;;;;;;789.67;573.10;;;;;;;-140.79;100.00;63287.88;5000747;28;20104;-52
2022/07/03 09:04:49;;;;;;;786.85;565.60;;;;;;;-140.79;100.00;63287.88;4997991;28;20029;-51
2022/07/03 09:07:14;;;;;;;791.88;573.17;;;;;;;-140.79;100.00;63287.88;5019478;28;20088;-53
2022/07/03 09:09:40;;;;;;;814.92;603.40;;;;;;;-140.79;100.00;63287.88;5014888;28;20033;-52
2022/07/03 09:12:06;;;;;;;814.42;598.65;;;;;;;-140.79;100.00;63287.88;5016658;28;20041;-51
2022/07/03 09:14:31;;;;;;;838.72;630.22;;;;;;;-140.79;100.00;63287.88;5019530;28;20080;-52
2022/07/03 09:16:56;;;;;;;820.38;614.42;;;;;;;-140.79;100.00;63287.88;4981926;28;20041;-52
2022/07/03 09:19:46;;;;;;;818.40;608.20;;;;;;;-140.79;100.00;63287.88;5016577;28;20491;-52
2022/07/03 09:22:24;;;;;;;843.90;639.67;;;;;;;-140.79;100.00;63287.88;5010446;28;20649;-54
2022/07/03 09:24:51;;;;;;;881.57;696.87;;;;;;;-140.79;100.00;63287.88;5017938;28;20697;-51
2022/07/03 09:27:18;;;;;;;832.55;629.78;;;;;;;-140.79;100.00;63287.88;5014591;28;20029;-53
2022/07/03 09:30:06;;;;;;;806.50;594.05;;;;;;;-140.79;100.00;63287.88;5019076;28;20029;-53
2022/07/03 09:32:38;;;;;;;799.22;580.33;;;;;;;-140.79;100.00;63287.88;4994731;28;20052;-51
2022/07/03 09:35:19;;;;;;;787.25;564.17;;;;;;;-140.79;100.00;63287.88;5017564;28;20040;-57
2022/07/03 09:38:04;;;;;;;794.42;577.50;;;;;;;-140.79;100.00;63287.88;4986622;28;20695;-57
2022/07/03 09:40:57;;;;;;;799.75;581.13;;;;;;;-140.79;100.00;63287.88;5017065;28;20032;-52
2022/07/03 09:43:28;;;;;;;798.90;583.13;;;;;;;-140.79;100.00;63287.88;5007161;28;20435;-52
2022/07/03 09:46:01;;;;;;;810.70;590.03;;;;;;;-140.79;100.00;63287.88;5005487;28;20045;-52
2022/07/03 09:48:33;;;;;;;794.33;576.45;;;;;;;-140.79;100.00;63287.88;4976220;28;20646;-52
2022/07/03 09:51:23;;;;;;;792.53;575.97;;;;;;;-140.79;100.00;63287.88;4997639;28;20716;-53
2022/07/03 09:53:48;;;;;;;;;;;;;;;-140.79;100.00;63287.88;4999705;28;20034;-53
2022/07/03 09:56:16;;;;;;;810.42;596.15;;;;;;;-140.79;100.00;63287.88;4970786;28;19944;-56
2022/07/03 09:58:41;;;;;;;811.15;597.28;;;;;;;-140.79;100.00;63287.88;4997673;28;20539;-52
2022/07/03 10:01:17;;;;;;;813.45;595.30;;;;;;;-140.79;100.00;63287.88;4998073;28;20033;-53
2022/07/03 10:03:42;;;;;;;810.72;597.90;;;;;;;-140.79;100.00;63287.88;4999043;28;20041;-54
2022/07/03 10:06:08;;;;;;;809.03;590.38;;;;;;;-140.79;100.00;63287.88;4995671;28;20022;-53
2022/07/03 10:08:33;;;;;;;772.75;549.10;;;;;;;-140.79;100.00;63287.88;4999395;28;20026;-54
2022/07/03 10:10:59;;;;;;;715.75;482.92;;;;;;;-140.79;100.00;63287.88;4991538;28;20152;-56
2022/07/03 10:13:24;;;;;;;716.47;480.33;;;;;;;-140.79;100.00;63287.88;4978995;28;20042;-53
2022/07/03 10:15:50;;;;;;;715.17;483.25;;;;;;;-140.79;100.00;63287.88;4972828;28;20042;-59
2022/07/03 10:18:16;;;;;;;709.50;476.15;;;;;;;-140.79;100.00;63287.88;4994328;28;20037;-52
2022/07/03 10:20:48;;;;;;;716.67;486.48;;;;;;;-140.79;100.00;63287.88;4964414;28;20539;-51
2022/07/03 10:23:20;;;;;;;707.72;475.00;;;;;;;-140.79;100.00;63287.88;4977136;28;20029;-59
2022/07/03 10:25:46;;;;;;;719.22;481.80;;;;;;;-140.79;100.00;63287.88;4988703;28;20205;-54
2022/07/03 10:28:13;;;;;;;705.25;472.95;;;;;;;-140.79;100.00;63287.88;4995423;28;20083;-56
2022/07/03 10:30:38;;;;;;;696.15;461.27;;;;;;;-140.79;100.00;63287.88;4999174;28;20042;-52
2022/07/03 10:33:04;;;;;;;690.85;454.92;;;;;;;-140.79;100.00;63287.88;4975576;28;20154;-54
2022/07/03 10:35:34;;;;;;;702.92;468.73;;;;;;;-140.79;100.00;63287.88;4996832;28;20030;-52
2022/07/03 10:38:02;;;;;;;800.60;583.40;;;;;;;-140.79;100.00;63287.88;4976719;28;20048;-55
2022/07/03 10:46:22;;;;;;;832.53;621.28;;;;;;;-140.79;100.00;63287.88;4967917;28;20468;-53
2022/07/03 10:48:57;;;;;;;845.40;632.65;;;;;;;-140.79;100.00;63287.88;4995665;28;20695;-52
2022/07/03 10:51:23;;;;;;;836.00;624.60;;;;;;;-140.79;100.00;63287.88;4994991;28;20038;-57
2022/07/03 10:53:48;;;;;;;847.17;641.15;;;;;;;-140.79;100.00;63287.88;4973751;28;20037;-56
2022/07/03 10:56:17;;;;;;;842.75;633.42;;;;;;;-140.79;100.00;63287.88;4991678;28;20042;-51
2022/07/03 10:58:56;;;;;;;857.53;655.78;;;;;;;-140.79;100.00;63287.88;4977916;28;20039;-56
2022/07/03 11:01:32;;;;;;;858.42;651.45;;;;;;;-140.79;100.00;63287.88;4994856;28;20095;-57
2022/07/03 11:04:00;;;;;;;877.15;674.10;;;;;;;-140.79;100.00;63287.88;4994457;28;20447;-52
2022/07/03 11:06:44;;;;;;;896.67;702.40;;;;;;;-140.79;100.00;63287.88;4998045;28;20022;-52
2022/07/03 11:09:10;;;;;;;915.10;725.85;;;;;;;-140.79;100.00;63287.88;4995894;28;20485;-51